Portada
METAR-TAF:

METAR-TAF

Aeroports :

Great Barrier Reef Airport

Illa de Hamilton, Austràlia

latitud: 20-21-29S, longitud: 148-57-06E, altitud: 5 m

Observació

L'informe es va fer fa 36 minuts, a les 02:30 UTC
Vent 17 kt del Est/Sud-Est
Temperatura 25°C
Humitat 54%
Pressió 1017 hPa
Visibilitat 10 km o més

METAR: YBHM 300230Z AUTO 12017KT 9999 // NCD 25/15 Q1017 RF00.0/000.0

Hora: 13:06 (03:06 UTC)

Pronòstic

L'informe es va fer fa 4 hores i 51 minuts, a les 22:15 UTC
Pronòstic vàlid del 30 a les 00 UTC al 30 a les 12 UTC
Vent 18 kt del Est/Sud-Est
Visibilitat 10 km o més
Escasses núvols a una alçada de 4000 ft

TAF: YBHM 292215Z 3000/3012 11018KT 9999 FEW040

Observacions i pronòstics meteorològics de més de 4000 aeroports (METAR i TAF).

Les estacions disponibles són els punts grocs i vermells al mapa.

Posi el ratolí al punt desitjat per veure el nom de l'estació.

Feu clic per veure les observacions i els pronòstics meteorològics.

Per canviar el mapa: feu clic els botons verds amb una creu de color negre per apropar; al botó verd amb un guió per allunyar la imatge; o en les fletxes verdes per a mapes adjacents.


METAR-TAF: